createdAt,value
2023-04-10T00:01:53.465Z,99928.84
2023-04-10T00:04:20.097Z,99905.19
2023-04-10T00:06:48.958Z,99923.94
2023-04-10T00:09:15.499Z,99921.63
2023-04-10T00:11:42.084Z,99892.44
2023-04-10T00:14:08.566Z,99928.53
2023-04-10T00:16:35.159Z,99913.91
2023-04-10T00:19:01.657Z,99909.91
2023-04-10T00:21:28.315Z,99914.69
2023-04-10T00:23:54.900Z,99890.16
2023-04-10T00:26:22.384Z,99918.63
2023-04-10T00:28:48.841Z,99919.47
2023-04-10T00:31:15.526Z,99911.13
2023-04-10T00:33:42.065Z,99909.16
2023-04-10T00:36:08.691Z,99906.09
2023-04-10T00:38:36.209Z,99903.41
2023-04-10T00:41:02.708Z,99882.31
2023-04-10T00:43:29.188Z,99892.63
2023-04-10T00:45:55.985Z,99900.00
2023-04-10T00:48:22.528Z,99893.78
2023-04-10T00:50:49.063Z,99909.53
2023-04-10T00:53:15.716Z,99901.63
2023-04-10T00:55:42.277Z,99904.69
2023-04-10T00:58:08.843Z,99903.41
2023-04-10T01:00:35.374Z,99905.31
2023-04-10T01:03:02.244Z,99822.72
2023-04-10T01:05:35.662Z,99900.16
2023-04-10T01:08:19.876Z,99892.72
2023-04-10T01:11:02.075Z,99895.06
2023-04-10T01:13:35.327Z,99895.25
2023-04-10T01:16:06.146Z,99887.97
2023-04-10T01:18:44.748Z,99890.13
2023-04-10T01:21:12.447Z,99874.56
2023-04-10T01:24:04.219Z,99885.47
2023-04-10T01:26:47.758Z,99847.06
2023-04-10T01:29:19.676Z,99862.69
2023-04-10T01:31:55.232Z,99891.75
2023-04-10T01:34:24.223Z,99875.91
2023-04-10T01:36:54.296Z,99882.16
2023-04-10T01:39:22.029Z,99884.66
2023-04-10T01:41:51.917Z,99879.25
2023-04-10T01:44:19.729Z,99884.06
2023-04-10T01:46:48.605Z,99893.59
2023-04-10T01:49:15.389Z,99900.25
2023-04-10T01:51:42.429Z,99895.09
2023-04-10T01:54:09.158Z,99898.31
2023-04-10T01:56:35.994Z,99910.22
2023-04-10T01:59:03.714Z,99911.06
2023-04-10T02:01:30.716Z,99895.03
2023-04-10T02:03:58.726Z,99914.03
2023-04-10T02:06:41.925Z,99898.72
2023-04-10T02:09:19.270Z,99904.28
2023-04-10T02:11:54.371Z,99898.44
2023-04-10T02:14:22.177Z,99868.44
2023-04-10T02:16:52.919Z,99901.69
2023-04-10T02:19:19.690Z,99902.00
2023-04-10T02:21:47.297Z,99895.69
2023-04-10T02:24:13.820Z,99888.97
2023-04-10T02:26:51.694Z,99875.94
2023-04-10T02:29:18.699Z,99888.47
2023-04-10T02:31:46.152Z,99885.75
2023-04-10T02:34:12.825Z,99894.84
2023-04-10T02:36:39.867Z,99894.84
2023-04-10T02:39:06.872Z,99908.25
2023-04-10T02:41:33.356Z,99906.28
2023-04-10T02:43:59.765Z,99898.06
2023-04-10T02:46:26.388Z,99897.38
2023-04-10T02:48:56.101Z,99894.34
2023-04-10T02:51:22.606Z,99895.13
2023-04-10T02:53:49.270Z,99901.09
2023-04-10T02:56:15.681Z,99903.91
2023-04-10T02:58:46.037Z,99902.41
2023-04-10T03:01:12.812Z,99907.66
2023-04-10T03:03:39.689Z,99895.47
2023-04-10T03:06:08.029Z,99896.31
2023-04-10T03:08:34.709Z,99890.84
2023-04-10T03:11:01.280Z,99882.41
2023-04-10T03:13:27.792Z,99900.78
2023-04-10T03:15:54.372Z,99897.69
2023-04-10T03:18:21.048Z,99890.34
2023-04-10T03:20:47.697Z,99890.31
2023-04-10T03:23:14.294Z,99896.25
2023-04-10T03:25:41.285Z,99902.53
2023-04-10T03:28:07.834Z,99877.03
2023-04-10T03:30:36.957Z,99879.47
2023-04-10T03:33:03.628Z,99883.78
2023-04-10T03:35:30.145Z,99884.97
2023-04-10T03:37:56.544Z,99888.22
2023-04-10T03:40:23.070Z,99885.03
2023-04-10T03:42:49.619Z,99882.72
2023-04-10T03:45:16.216Z,99885.47
2023-04-10T03:47:42.938Z,99887.34
2023-04-10T03:50:09.950Z,99885.84
2023-04-10T03:52:36.553Z,99885.88
2023-04-10T03:55:03.019Z,99884.72
2023-04-10T03:57:29.543Z,99875.75
2023-04-10T03:59:56.365Z,99877.75
2023-04-10T04:02:23.163Z,99881.69
2023-04-10T04:04:49.924Z,99874.28
2023-04-10T04:07:16.430Z,99877.03
2023-04-10T04:09:42.950Z,99873.91
2023-04-10T04:12:09.542Z,99870.41
2023-04-10T04:14:36.058Z,99882.53
2023-04-10T04:17:02.872Z,99882.09
2023-04-10T04:19:29.881Z,99874.28
2023-04-10T04:21:56.485Z,99876.94
2023-04-10T04:24:23.026Z,99867.16
2023-04-10T04:26:49.694Z,99869.56
2023-04-10T04:29:16.378Z,99848.56
2023-04-10T04:31:42.927Z,99868.50
2023-04-10T04:34:09.422Z,99872.84
2023-04-10T04:36:35.975Z,99881.50
2023-04-10T04:39:02.610Z,99876.78
2023-04-10T04:41:32.162Z,99883.88
2023-04-10T04:43:59.981Z,99886.66
2023-04-10T04:46:26.621Z,99871.84
2023-04-10T04:48:53.150Z,99853.91
2023-04-10T04:51:19.590Z,99879.25
2023-04-10T04:53:46.080Z,99888.31
2023-04-10T04:56:12.565Z,99885.56
2023-04-10T04:58:39.022Z,99888.28
2023-04-10T05:01:06.066Z,99893.38
2023-04-10T05:03:32.907Z,99885.13
2023-04-10T05:05:59.693Z,99892.50
2023-04-10T05:08:26.510Z,99873.00
2023-04-10T05:10:53.030Z,99883.81
2023-04-10T05:13:19.520Z,99892.41
2023-04-10T05:15:46.269Z,99887.69
2023-04-10T05:18:14.084Z,99893.56
2023-04-10T05:20:40.954Z,99902.94
2023-04-10T05:23:07.416Z,99897.44
2023-04-10T05:25:33.972Z,99906.44
2023-04-10T05:28:00.686Z,99899.72
2023-04-10T05:30:27.108Z,99898.81
2023-04-10T05:32:53.685Z,99893.66
2023-04-10T05:35:20.268Z,99902.63
2023-04-10T05:37:46.724Z,99897.44
2023-04-10T05:40:13.184Z,99906.75
2023-04-10T05:42:39.654Z,99901.94
2023-04-10T05:45:06.835Z,99903.00
2023-04-10T05:47:33.445Z,99905.69
2023-04-10T05:49:59.989Z,99907.56
2023-04-10T05:52:26.713Z,99909.00
2023-04-10T05:54:53.149Z,99914.75
2023-04-10T05:57:19.611Z,99900.53
2023-04-10T05:59:46.140Z,99915.66
2023-04-10T06:02:12.603Z,99890.56
2023-04-10T06:04:39.378Z,99915.03
2023-04-10T06:07:06.108Z,99909.38
2023-04-10T06:09:32.629Z,99914.78
2023-04-10T06:11:59.126Z,99912.31
2023-04-10T06:14:26.041Z,99912.13
2023-04-10T06:16:52.543Z,99894.09
2023-04-10T06:19:19.006Z,99908.34
2023-04-10T06:21:45.559Z,99878.19
2023-04-10T06:24:12.928Z,99897.47
2023-04-10T06:26:39.875Z,99900.06
2023-04-10T06:29:06.400Z,99896.44
2023-04-10T06:31:33.988Z,99897.03
2023-04-10T06:34:00.520Z,99905.50
2023-04-10T06:36:27.729Z,99902.63
2023-04-10T06:38:54.274Z,99911.13
2023-04-10T06:41:21.112Z,99886.22
2023-04-10T06:43:47.927Z,99889.19
2023-04-10T06:46:16.031Z,99895.47
2023-04-10T06:48:44.381Z,99875.31
2023-04-10T06:51:12.251Z,99885.94
2023-04-10T06:53:39.864Z,99893.53
2023-04-10T06:56:07.058Z,99875.94
2023-04-10T06:58:33.629Z,99882.97
2023-04-10T07:01:04.404Z,99880.47
2023-04-10T07:03:32.596Z,99856.38
2023-04-10T07:05:59.845Z,99884.94
2023-04-10T07:08:26.282Z,99875.06
2023-04-10T07:10:52.827Z,99875.72
2023-04-10T07:13:19.301Z,99869.72
2023-04-10T07:15:45.885Z,99871.00
2023-04-10T07:18:12.429Z,99865.63
2023-04-10T07:20:38.869Z,99864.47
2023-04-10T07:23:05.946Z,99828.38
2023-04-10T07:25:32.375Z,99865.59
2023-04-10T07:27:58.866Z,99854.19
2023-04-10T07:30:25.999Z,99860.03
2023-04-10T07:32:52.693Z,99856.63
2023-04-10T07:35:20.263Z,99854.94
2023-04-10T07:37:51.488Z,99830.00
2023-04-10T07:40:18.158Z,99856.97
2023-04-10T07:42:44.649Z,99849.66
2023-04-10T07:45:11.430Z,99817.31
2023-04-10T07:47:38.353Z,99805.84
2023-04-10T07:50:05.548Z,99785.88
2023-04-10T07:52:32.132Z,99814.63
2023-04-10T07:55:01.964Z,99810.22
2023-04-10T07:57:28.545Z,99806.75
2023-04-10T07:59:55.087Z,99827.81
2023-04-10T08:02:21.939Z,99799.84
2023-04-10T08:04:48.731Z,99818.09
2023-04-10T08:07:15.527Z,99805.19
2023-04-10T08:09:42.063Z,99823.59
2023-04-10T08:12:08.549Z,99814.34
2023-04-10T08:14:35.018Z,99814.34
2023-04-10T08:17:01.582Z,99791.75
2023-04-10T08:19:28.226Z,99796.19
2023-04-10T08:21:54.707Z,99793.84
2023-04-10T08:24:22.947Z,99792.03
2023-04-10T08:26:49.756Z,99811.56
2023-04-10T08:29:16.350Z,99793.25
2023-04-10T08:31:42.828Z,99820.28
2023-04-10T08:34:09.325Z,99813.34
2023-04-10T08:36:36.154Z,99815.81
2023-04-10T08:39:02.790Z,99817.94
2023-04-10T08:41:29.424Z,99797.81
2023-04-10T08:43:57.382Z,99794.00
2023-04-10T08:46:26.196Z,99790.13
2023-04-10T08:49:02.819Z,99813.16
2023-04-10T08:51:36.656Z,99797.19
2023-04-10T08:54:08.423Z,99793.91
2023-04-10T08:56:36.174Z,99792.44
2023-04-10T08:59:03.554Z,99776.19
2023-04-10T09:01:31.170Z,99778.28
2023-04-10T09:03:58.536Z,99789.25
2023-04-10T09:06:26.065Z,99788.03
2023-04-10T09:08:52.693Z,99776.91
2023-04-10T09:11:19.461Z,99755.97
2023-04-10T09:13:46.939Z,99759.09
2023-04-10T09:16:13.933Z,99758.38
2023-04-10T09:18:43.418Z,99755.84
2023-04-10T09:21:13.505Z,99751.81
2023-04-10T09:23:41.812Z,99723.38
2023-04-10T09:26:28.336Z,99739.78
2023-04-10T09:29:09.203Z,99746.94
2023-04-10T09:31:37.113Z,99732.09
2023-04-10T09:34:17.663Z,99728.53
2023-04-10T09:36:53.041Z,99721.09
2023-04-10T09:39:19.609Z,99712.41
2023-04-10T09:41:55.313Z,99706.50
2023-04-10T09:44:36.432Z,99716.16
2023-04-10T09:47:18.619Z,99708.22
2023-04-10T09:49:55.985Z,99704.63
2023-04-10T09:52:27.041Z,99689.25
2023-04-10T09:54:55.436Z,99692.88
2023-04-10T09:57:23.040Z,99685.19
2023-04-10T09:59:54.964Z,99685.72
2023-04-10T10:02:23.672Z,99680.59
2023-04-10T10:04:51.018Z,99680.28
2023-04-10T10:07:19.439Z,99673.47
2023-04-10T10:09:48.237Z,99668.78
2023-04-10T10:12:44.202Z,99647.25
2023-04-10T10:15:19.670Z,99665.00
2023-04-10T10:18:25.185Z,99653.50
2023-04-10T10:20:52.307Z,99655.13
2023-04-10T10:23:19.691Z,99637.53
2023-04-10T10:25:46.778Z,99632.63
2023-04-10T10:28:14.658Z,99632.91
2023-04-10T10:30:42.262Z,99645.88
2023-04-10T10:33:09.189Z,99637.22
2023-04-10T10:35:36.438Z,99601.09
2023-04-10T10:38:04.327Z,99635.72
2023-04-10T10:40:41.491Z,99612.69
2023-04-10T10:43:32.086Z,99624.00
2023-04-10T10:46:13.253Z,99620.94
2023-04-10T10:48:39.778Z,99614.69
2023-04-10T10:51:06.686Z,99622.16
2023-04-10T10:53:42.716Z,99620.50
2023-04-10T10:56:18.451Z,99615.22
2023-04-10T10:58:57.535Z,99599.50
2023-04-10T11:01:24.500Z,99583.34
2023-04-10T11:03:51.232Z,99587.63
2023-04-10T11:06:19.683Z,99597.97
2023-04-10T11:08:50.081Z,99569.16
2023-04-10T11:11:17.727Z,99579.69
2023-04-10T11:13:50.207Z,99574.03
2023-04-10T11:16:16.916Z,99552.19
2023-04-10T11:18:47.313Z,99572.38
2023-04-10T11:21:19.989Z,99565.56
2023-04-10T11:24:01.565Z,99561.03
2023-04-10T11:26:42.754Z,99555.75
2023-04-10T11:29:27.674Z,99550.31
2023-04-10T11:31:59.417Z,99550.91
2023-04-10T11:34:27.658Z,99547.06
2023-04-10T11:36:54.766Z,99540.06
2023-04-10T11:39:21.500Z,99531.53
2023-04-10T11:41:50.430Z,99526.00
2023-04-10T11:44:21.004Z,99506.97
2023-04-10T11:46:47.920Z,99516.75
2023-04-10T11:49:22.819Z,99510.78
2023-04-10T11:51:51.086Z,99505.00
2023-04-10T11:54:19.445Z,99503.06
2023-04-10T11:57:01.070Z,99496.41
2023-04-10T11:59:27.911Z,99498.81
2023-04-10T12:02:05.380Z,99492.97
2023-04-10T12:04:32.284Z,99492.44
2023-04-10T12:06:59.175Z,99492.84
2023-04-10T12:09:26.267Z,99488.97
2023-04-10T12:12:05.572Z,99477.41
2023-04-10T12:14:38.176Z,99471.25
2023-04-10T12:17:07.021Z,99467.91
2023-04-10T12:19:34.192Z,99464.22
2023-04-10T12:22:04.086Z,99459.97
2023-04-10T12:24:45.054Z,99465.59
2023-04-10T12:27:21.863Z,99461.59
2023-04-10T12:29:49.939Z,99430.44
2023-04-10T12:32:16.718Z,99441.22
2023-04-10T12:34:52.687Z,99377.22
2023-04-10T12:37:20.083Z,99425.97
2023-04-10T12:39:46.849Z,99433.81
2023-04-10T12:42:21.343Z,99428.06
2023-04-10T12:45:01.335Z,99427.69
2023-04-10T12:47:29.359Z,99417.50
2023-04-10T12:50:12.080Z,99416.00
2023-04-10T12:52:43.009Z,99412.25
2023-04-10T12:55:12.704Z,99394.31
2023-04-10T12:57:43.079Z,99393.31
2023-04-10T13:00:17.797Z,99392.19
2023-04-10T13:02:45.148Z,99376.59
2023-04-10T13:05:12.363Z,99357.47
2023-04-10T13:07:39.596Z,99384.78
2023-04-10T13:10:07.386Z,99357.16
2023-04-10T13:12:36.160Z,99372.19
2023-04-10T13:15:02.936Z,99373.50
2023-04-10T13:17:29.550Z,99367.56
2023-04-10T13:19:56.033Z,99366.91
2023-04-10T13:22:22.746Z,99358.19
2023-04-10T13:24:49.301Z,99358.81
2023-04-10T13:27:16.016Z,99360.97
2023-04-10T13:29:43.596Z,99339.44
2023-04-10T13:32:10.752Z,99352.19
2023-04-10T13:34:37.299Z,99337.47
2023-04-10T13:37:03.860Z,99344.97
2023-04-10T13:39:31.450Z,99336.34
2023-04-10T13:41:58.938Z,99326.81
2023-04-10T13:44:25.613Z,99326.94
2023-04-10T13:46:52.292Z,99315.44
2023-04-10T13:49:20.313Z,99306.69
2023-04-10T13:51:49.647Z,99292.91
2023-04-10T13:54:20.073Z,99303.75
2023-04-10T13:56:46.853Z,99309.91
2023-04-10T13:59:13.808Z,99305.97
2023-04-10T14:01:40.424Z,99304.25
2023-04-10T14:04:07.163Z,99298.56
2023-04-10T14:06:34.203Z,99295.59
2023-04-10T14:09:00.911Z,99279.50
2023-04-10T14:11:27.361Z,99281.44
2023-04-10T14:13:53.903Z,99280.56
2023-04-10T14:16:20.596Z,99286.00
2023-04-10T14:18:47.263Z,99278.94
2023-04-10T14:21:13.794Z,99275.59
2023-04-10T14:23:41.994Z,99263.19
2023-04-10T14:26:08.596Z,99265.47
2023-04-10T14:28:35.499Z,99262.63
2023-04-10T14:31:02.022Z,99247.75
2023-04-10T14:33:28.845Z,99266.34
2023-04-10T14:35:55.597Z,99245.38
2023-04-10T14:38:22.161Z,99261.44
2023-04-10T14:40:50.290Z,99235.94
2023-04-10T14:43:19.289Z,99253.72
2023-04-10T14:45:45.996Z,99244.16
2023-04-10T14:48:13.311Z,99249.41
2023-04-10T14:50:40.091Z,99239.72
2023-04-10T14:53:09.502Z,99215.00
2023-04-10T14:55:37.082Z,99233.84
2023-04-10T14:58:04.050Z,99216.16
2023-04-10T15:00:30.624Z,99227.50
2023-04-10T15:02:57.471Z,99202.81
2023-04-10T15:05:25.517Z,99201.78
2023-04-10T15:07:52.260Z,99214.81
2023-04-10T15:10:18.884Z,99216.56
2023-04-10T15:12:45.411Z,99203.56
2023-04-10T15:15:11.979Z,99189.72
2023-04-10T15:17:38.563Z,99209.63
2023-04-10T15:20:05.788Z,99182.66
2023-04-10T15:22:32.392Z,99197.16
2023-04-10T15:24:58.968Z,99186.69
2023-04-10T15:27:25.527Z,99164.06
2023-04-10T15:29:52.118Z,99183.63
2023-04-10T15:32:18.691Z,99172.91
2023-04-10T15:34:45.334Z,99149.72
2023-04-10T15:37:11.962Z,99172.22
2023-04-10T15:39:38.656Z,99174.00
2023-04-10T15:42:07.440Z,99141.88
2023-04-10T15:44:33.915Z,99120.56
2023-04-10T15:47:00.421Z,99154.22
2023-04-10T15:49:36.994Z,99142.59
2023-04-10T15:52:07.968Z,99132.66
2023-04-10T15:54:35.012Z,99148.97
2023-04-10T15:57:02.339Z,99150.31
2023-04-10T15:59:29.352Z,99148.53
2023-04-10T16:01:56.136Z,99129.69
2023-04-10T16:04:23.022Z,99132.41
2023-04-10T16:06:49.837Z,99136.00
2023-04-10T16:09:25.398Z,99116.59
2023-04-10T16:11:53.402Z,99125.25
2023-04-10T16:14:20.185Z,99128.53
2023-04-10T16:16:46.664Z,99104.38
2023-04-10T16:19:13.197Z,99086.28
2023-04-10T16:21:40.119Z,99112.75
2023-04-10T16:24:06.832Z,99100.25
2023-04-10T16:26:33.965Z,99095.69
2023-04-10T16:29:00.866Z,99098.25
2023-04-10T16:31:27.507Z,99093.44
2023-04-10T16:33:54.186Z,99086.59
2023-04-10T16:36:20.752Z,99074.13
2023-04-10T16:38:49.727Z,99074.13
2023-04-10T16:41:20.771Z,99052.00
2023-04-10T16:43:47.716Z,99067.28
2023-04-10T16:46:14.378Z,99020.47
2023-04-10T16:48:41.061Z,99049.72
2023-04-10T16:51:09.516Z,99050.75
2023-04-10T16:53:36.253Z,99032.88
2023-04-10T16:56:05.194Z,99002.63
2023-04-10T16:58:33.843Z,99029.09
2023-04-10T17:01:00.635Z,99010.31
2023-04-10T17:03:27.385Z,99021.00
2023-04-10T17:05:53.923Z,99004.47
2023-04-10T17:08:20.595Z,99015.66
2023-04-10T17:10:47.108Z,98995.38
2023-04-10T17:13:13.640Z,99002.75
2023-04-10T17:15:40.284Z,99007.84
2023-04-10T17:18:06.782Z,99000.72
2023-04-10T17:20:36.598Z,98980.38
2023-04-10T17:23:03.177Z,99004.31
2023-04-10T17:25:30.137Z,99003.78
2023-04-10T17:27:57.243Z,99003.59
2023-04-10T17:30:23.861Z,99008.44
2023-04-10T17:32:50.418Z,98983.28
2023-04-10T17:35:17.050Z,99004.63
2023-04-10T17:37:43.467Z,99012.06
2023-04-10T17:40:11.089Z,98996.50
2023-04-10T17:42:37.607Z,99000.06
2023-04-10T17:45:04.606Z,98988.13
2023-04-10T17:47:31.784Z,98971.59
2023-04-10T17:49:58.335Z,99000.34
2023-04-10T17:52:24.949Z,98989.66
2023-04-10T17:54:51.378Z,98985.84
2023-04-10T17:57:18.005Z,98989.66
2023-04-10T17:59:44.537Z,98954.00
2023-04-10T18:02:11.162Z,98977.22
2023-04-10T18:04:37.690Z,98989.69
2023-04-10T18:07:04.252Z,98983.03
2023-04-10T18:09:30.742Z,98969.03
2023-04-10T18:11:57.398Z,98976.44
2023-04-10T18:14:23.829Z,98970.56
2023-04-10T18:16:50.358Z,98977.94
2023-04-10T18:19:16.889Z,98965.41
2023-04-10T18:21:43.929Z,98965.16
2023-04-10T18:24:13.990Z,98967.41
2023-04-10T18:26:40.772Z,98939.66
2023-04-10T18:29:07.740Z,98948.56
2023-04-10T18:31:34.344Z,98964.06
2023-04-10T18:34:08.032Z,98959.22
2023-04-10T18:36:35.064Z,98947.00
2023-04-10T18:39:01.590Z,98934.28
2023-04-10T18:41:28.111Z,98944.44
2023-04-10T18:44:04.249Z,98938.63
2023-04-10T18:46:32.610Z,98935.03
2023-04-10T18:49:00.704Z,98937.31
2023-04-10T18:51:27.775Z,98926.06
2023-04-10T18:53:54.452Z,98925.84
2023-04-10T18:56:21.050Z,98927.63
2023-04-10T18:58:49.865Z,98925.31
2023-04-10T19:01:17.873Z,98930.91
2023-04-10T19:03:47.750Z,98925.31
2023-04-10T19:06:17.304Z,98902.63
2023-04-10T19:08:43.773Z,98903.13
2023-04-10T19:11:10.444Z,98922.78
2023-04-10T19:13:37.007Z,98922.47
2023-04-10T19:16:04.523Z,98900.84
2023-04-10T19:18:31.541Z,98914.59
2023-04-10T19:20:59.295Z,98902.88
2023-04-10T19:23:26.207Z,98901.09
2023-04-10T19:25:54.041Z,98891.94
2023-04-10T19:28:20.923Z,98898.56
2023-04-10T19:30:47.391Z,98876.13
2023-04-10T19:33:14.067Z,98892.44
2023-04-10T19:35:40.703Z,98890.16
2023-04-10T19:38:07.182Z,98890.13
2023-04-10T19:40:33.660Z,98889.59
2023-04-10T19:43:01.884Z,98864.91
2023-04-10T19:45:29.319Z,98879.19
2023-04-10T19:47:56.788Z,98864.19
2023-04-10T19:50:23.748Z,98846.09
2023-04-10T19:52:51.494Z,98864.44
2023-04-10T19:55:19.118Z,98875.63
2023-04-10T19:57:45.909Z,98866.25
2023-04-10T20:00:13.063Z,98855.56
2023-04-10T20:02:40.061Z,98857.31
2023-04-10T20:05:07.179Z,98858.59
2023-04-10T20:07:33.701Z,98853.25
2023-04-10T20:10:02.625Z,98828.81
2023-04-10T20:12:35.120Z,98841.25
2023-04-10T20:15:02.482Z,98827.06
2023-04-10T20:17:29.548Z,98786.28
2023-04-10T20:19:56.453Z,98807.75
2023-04-10T20:22:23.031Z,98804.41
2023-04-10T20:24:49.514Z,98809.50
2023-04-10T20:27:16.018Z,98804.63
2023-04-10T20:29:42.656Z,98799.88
2023-04-10T20:32:09.719Z,98794.78
2023-04-10T20:34:36.720Z,98795.53
2023-04-10T20:37:03.480Z,98787.66
2023-04-10T20:39:30.129Z,98767.00
2023-04-10T20:41:57.384Z,98754.81
2023-04-10T20:44:23.902Z,98745.69
2023-04-10T20:46:50.785Z,98733.00
2023-04-10T20:49:17.554Z,98749.31
2023-04-10T20:51:44.363Z,98760.75
2023-04-10T20:54:11.799Z,98761.50
2023-04-10T20:56:43.478Z,98763.78
2023-04-10T20:59:11.184Z,98756.66
2023-04-10T21:01:38.348Z,98757.19
2023-04-10T21:04:05.410Z,98748.28
2023-04-10T21:06:33.215Z,98758.41
2023-04-10T21:08:59.791Z,98728.91
2023-04-10T21:11:27.414Z,98745.97
2023-04-10T21:13:54.279Z,98758.13
2023-04-10T21:16:21.075Z,98738.56
2023-04-10T21:18:47.915Z,98738.81
2023-04-10T21:21:14.691Z,98725.09
2023-04-10T21:23:41.250Z,98712.41
2023-04-10T21:26:07.848Z,98691.28
2023-04-10T21:28:34.413Z,98698.19
2023-04-10T21:31:01.003Z,98695.38
2023-04-10T21:33:27.496Z,98685.97
2023-04-10T21:35:54.030Z,98666.66
2023-04-10T21:38:20.823Z,98687.75
2023-04-10T21:40:51.421Z,98693.84
2023-04-10T21:43:18.308Z,98698.69
2023-04-10T21:45:44.844Z,98696.41
2023-04-10T21:48:11.451Z,98687.75
2023-04-10T21:50:38.008Z,98690.28
2023-04-10T21:53:04.568Z,98687.22
2023-04-10T21:55:31.039Z,98677.34
2023-04-10T21:57:57.714Z,98677.31
2023-04-10T22:00:24.382Z,98659.28
2023-04-10T22:02:51.839Z,98664.88
2023-04-10T22:05:18.523Z,98660.34
2023-04-10T22:07:45.012Z,98655.78
2023-04-10T22:10:11.571Z,98650.44
2023-04-10T22:12:38.124Z,98648.44
2023-04-10T22:15:06.707Z,98655.53
2023-04-10T22:17:33.762Z,98631.44
2023-04-10T22:20:00.607Z,98623.78
2023-04-10T22:22:27.014Z,98643.09
2023-04-10T22:24:53.477Z,98631.69
2023-04-10T22:27:19.998Z,98627.84
2023-04-10T22:29:56.275Z,98627.09
2023-04-10T22:32:29.075Z,98630.38
2023-04-10T22:34:55.718Z,98602.94
2023-04-10T22:37:22.272Z,98626.59
2023-04-10T22:39:48.823Z,98618.97
2023-04-10T22:42:15.775Z,98602.22
2023-04-10T22:44:42.299Z,98599.69
2023-04-10T22:47:08.696Z,98604.50
2023-04-10T22:49:35.441Z,98591.03
2023-04-10T22:52:01.991Z,98590.00
2023-04-10T22:54:29.375Z,98573.53
2023-04-10T22:56:57.921Z,98558.31
2023-04-10T22:59:24.417Z,98562.09
2023-04-10T23:01:51.443Z,98524.00
2023-04-10T23:04:18.282Z,98526.81
2023-04-10T23:06:44.862Z,98517.19
2023-04-10T23:09:11.668Z,98507.28
2023-04-10T23:11:38.412Z,98518.47
2023-04-10T23:14:04.879Z,98505.78
2023-04-10T23:16:31.404Z,98538.50
2023-04-10T23:18:58.003Z,98552.44
2023-04-10T23:21:24.503Z,98560.03
2023-04-10T23:23:51.014Z,98557.53
2023-04-10T23:26:17.453Z,98532.66
2023-04-10T23:28:43.900Z,98514.59
2023-04-10T23:31:10.414Z,98550.66
2023-04-10T23:33:36.888Z,98549.38
2023-04-10T23:36:03.678Z,98520.72
2023-04-10T23:38:30.112Z,98523.75
2023-04-10T23:40:56.628Z,98525.00
2023-04-10T23:43:23.157Z,98532.13
2023-04-10T23:45:49.658Z,98541.25
2023-04-10T23:48:16.251Z,98549.84
2023-04-10T23:50:42.766Z,98531.84
2023-04-10T23:53:09.322Z,98531.84
2023-04-10T23:55:36.172Z,98530.81
2023-04-10T23:58:02.890Z,98524.69
